Baden, Canada
Current Conditions -  °F | °C
As of 10:00 AM on Tuesday 21 Oct 2014 (Local Time) from CYKF Reporting Station
Moderate Rain Moderate Rain  
Wind Chill: 42°   Ceiling: 1200
Heat Index: 46°   Visibility: 8mi
Dew Point: 45°   Wind: 8mph
Humidity: 93%   Direction: 310°NW
Pressure: 29.87"   Gusts: NA
Location:  43.4°N, 80.67°W
Report Text: CYKF 211400Z AUTO 31007KT 8SM RA BKN012 BKN020 OVC029 08/07 A2987 RMK PCPN 3.2MM PAST HR SLP119
Loading
Personal Weather Stations






























Interactive Weather Map
Tropical Storm Tracking
New forecast layout! Learn more

10-Day Weather Forecast

Advertisements
Track Severe Weather on mobile